Time;durP1;ratioP1;P1;durP2;ratioP2;P2;SDS_P1;SDS_P2;PMS_P1;PMS_P2;Temp;Humidity;BMP_temperature;BMP_pressure;BME280_temperature;BME280_humidity;BME280_pressure;Samples;Min_cycle;Max_cycle;Signal;HPM_P1;HPM_P2
2023/03/09 00:02:13;;;;;;;;;;;;;;;13.25;100.00;97786.84;5031454;28;19983;-67
2023/03/09 00:04:39;;;;;;;;;;;;;;;13.20;100.00;97805.91;5026552;28;19944;-67
2023/03/09 00:07:04;;;;;;;;;;;;;;;13.13;100.00;97780.66;5027493;28;19935;-66
2023/03/09 00:09:29;;;;;;;;;;;;;;;13.10;100.00;97794.25;5031801;28;19955;-66
2023/03/09 00:11:55;;;;;;;;;;;;;;;13.10;100.00;97790.72;5030760;28;19987;-66
2023/03/09 00:14:24;;;;;;;;;;;;;;;13.08;100.00;97801.50;5030873;28;19938;-66
2023/03/09 00:16:50;;;;;;;;;;;;;;;12.98;100.00;97789.81;5032215;28;20689;-66
2023/03/09 00:19:20;;;;;;;;;;;;;;;12.97;100.00;97805.94;5031497;28;20007;-65
2023/03/09 00:21:49;;;;;;;;;;;;;;;12.92;100.00;97798.31;5031168;28;19917;-64
2023/03/09 00:24:16;;;;;;;;;;;;;;;12.98;100.00;97808.50;5031553;28;20384;-64
2023/03/09 00:26:52;;;;;;;;;;;;;;;12.94;100.00;97796.38;5031449;28;20027;-64
2023/03/09 00:29:17;;;;;;;;;;;;;;;12.98;100.00;97797.81;5030737;28;19962;-63
2023/03/09 00:31:43;;;;;;;;;;;;;;;12.95;100.00;97783.84;5031043;28;19925;-62
2023/03/09 00:34:09;;;;;;;;;;;;;;;12.98;98.96;97791.66;5026089;28;19918;-62
2023/03/09 00:36:34;;;;;;;;;;;;;;;12.96;99.34;97798.91;5029043;28;19940;-62
2023/03/09 00:38:59;;;;;;;;;;;;;;;12.99;99.46;97807.53;5031376;28;19925;-62
2023/03/09 00:41:30;;;;;;;;;;;;;;;12.98;99.43;97805.81;5031241;28;19919;-62
2023/03/09 00:43:56;;;;;;;;;;;;;;;12.91;99.68;97823.31;5030080;28;19931;-62
2023/03/09 00:46:21;;;;;;;;;;;;;;;12.85;98.68;97825.59;5026395;28;20454;-62
2023/03/09 00:48:47;;;;;;;;;;;;;;;12.79;98.79;97821.56;5030673;28;19931;-61
2023/03/09 00:51:12;;;;;;;;;;;;;;;12.79;97.98;97837.56;5030114;28;20028;-62
2023/03/09 00:53:38;;;;;;;;;;;;;;;12.85;98.46;97830.94;5029703;28;19917;-62
2023/03/09 00:56:05;;;;;;;;;;;;;;;12.82;99.10;97836.47;5019514;28;19931;-61
2023/03/09 00:58:30;;;;;;;;;;;;;;;12.76;99.95;97839.63;5030185;28;20000;-61
2023/03/09 01:00:56;;;;;;;;;;;;;;;12.73;100.00;97854.03;5030813;28;20004;-61
2023/03/09 01:03:21;;;;;;;;;;;;;;;12.65;100.00;97840.41;5030951;28;19993;-63
2023/03/09 01:05:46;;;;;;;;;;;;;;;12.64;100.00;97849.38;5029971;28;19920;-62
2023/03/09 01:08:12;;;;;;;;;;;;;;;12.68;99.65;97852.69;5030568;28;19924;-61
2023/03/09 01:10:38;;;;;;;;;;;;;;;12.69;98.56;97868.56;5029750;28;19924;-61
2023/03/09 01:13:03;;;;;;;;;;;;;;;12.75;98.20;97873.44;5010976;28;19975;-61
2023/03/09 01:15:28;;;;;;;;;;;;;;;12.78;97.35;97867.03;5010927;28;19980;-61
2023/03/09 01:17:53;;;;;;;;;;;;;;;12.82;96.25;97863.16;5029096;28;20320;-61
2023/03/09 01:20:19;;;;;;;;;;;;;;;12.90;94.79;97861.59;5030786;28;19949;-61
2023/03/09 01:22:44;;;;;;;;;;;;;;;12.87;93.99;97824.50;5029716;28;19987;-60
2023/03/09 01:25:09;;;;;;;;;;;;;;;12.86;94.11;97841.47;5018090;28;19986;-61
2023/03/09 01:27:34;;;;;;;;;;;;;;;12.88;92.14;97847.53;5010733;28;20449;-61
2023/03/09 01:30:00;;;;;;;;;;;;;;;12.87;91.80;97847.63;5010751;28;20004;-61
2023/03/09 01:32:25;;;;;;;;;;;;;;;12.80;95.00;97841.09;5018549;28;19951;-61
2023/03/09 01:34:51;;;;;;;;;;;;;;;12.76;96.31;97848.47;5030495;28;19958;-61
2023/03/09 01:37:16;;;;;;;;;;;;;;;12.65;97.50;97845.75;5030303;28;19958;-61
2023/03/09 01:39:41;;;;;;;;;;;;;;;12.52;97.76;97839.63;5030182;28;20373;-62
2023/03/09 01:42:08;;;;;;;;;;;;;;;12.44;95.85;97831.34;5029085;28;19921;-61
2023/03/09 01:44:33;;;;;;;;;;;;;;;12.47;94.01;97836.47;5029453;28;20339;-61
2023/03/09 01:46:58;;;;;;;;;;;;;;;12.47;92.74;97839.13;5030066;28;19990;-61
2023/03/09 01:49:30;;;;;;;;;;;;;;;12.50;92.70;97838.06;5030222;28;19916;-61
2023/03/09 01:52:02;;;;;;;;;;;;;;;12.42;92.70;97843.13;5029383;28;19925;-61
2023/03/09 01:54:42;;;;;;;;;;;;;;;12.39;93.89;97846.03;5029748;28;19964;-61
2023/03/09 01:57:14;;;;;;;;;;;;;;;12.37;95.40;97850.59;5024687;28;19974;-61
2023/03/09 01:59:39;;;;;;;;;;;;;;;12.20;96.36;97843.84;5010237;28;19991;-61
2023/03/09 02:02:05;;;;;;;;;;;;;;;12.07;98.25;97848.38;5018187;28;20310;-64
2023/03/09 02:04:34;;;;;;;;;;;;;;;12.05;98.80;97838.78;5012637;28;19928;-64
2023/03/09 02:07:00;;;;;;;;;;;;;;;11.98;99.51;97841.03;5030599;28;19928;-64
2023/03/09 02:09:29;;;;;;;;;;;;;;;11.96;99.52;97840.28;5030221;28;19956;-64
2023/03/09 02:11:55;;;;;;;;;;;;;;;11.96;99.83;97855.44;5028539;28;20377;-64
2023/03/09 02:14:21;;;;;;;;;;;;;;;11.94;99.97;97858.22;5029833;28;19981;-64
2023/03/09 02:16:46;;;;;;;;;;;;;;;11.96;100.00;97864.28;5029201;28;19932;-64
2023/03/09 02:19:19;;;;;;;;;;;;;;;11.92;100.00;97870.81;5030055;28;20449;-65
2023/03/09 02:21:49;;;;;;;;;;;;;;;11.89;100.00;97881.69;5029893;28;20268;-64
2023/03/09 02:24:22;;;;;;;;;;;;;;;11.84;100.00;97913.13;5030271;28;19924;-64
2023/03/09 02:26:50;;;;;;;;;;;;;;;11.86;100.00;97929.84;5028987;28;19955;-64
2023/03/09 02:29:15;;;;;;;;;;;;;;;11.90;100.00;97937.50;5029998;28;19936;-66
2023/03/09 02:31:40;;;;;;;;;;;;;;;11.94;100.00;97988.78;5028402;28;19952;-68
2023/03/09 02:34:06;;;;;;;;;;;;;;;11.99;100.00;98009.75;5029659;28;19942;-67
2023/03/09 02:36:31;;;;;;;;;;;;;;;11.93;100.00;98027.00;5024867;28;19928;-69
2023/03/09 02:39:00;;;;;;;;;;;;;;;11.83;100.00;98031.28;5017318;28;19936;-69
2023/03/09 02:41:25;;;;;;;;;;;;;;;11.75;100.00;98039.81;5009864;28;19936;-70
2023/03/09 02:43:52;;;;;;;;;;;;;;;11.66;100.00;98047.56;5021384;28;19927;-69
2023/03/09 02:46:18;;;;;;;;;;;;;;;11.59;100.00;98064.88;5029467;28;20311;-69
2023/03/09 02:48:43;;;;;;;;;;;;;;;11.57;100.00;98059.66;5029924;28;19949;-70
2023/03/09 02:51:08;;;;;;;;;;;;;;;11.62;100.00;98064.66;5028748;28;19925;-70
2023/03/09 02:53:34;;;;;;;;;;;;;;;11.49;100.00;98053.16;5030198;28;19954;-70
2023/03/09 02:55:59;;;;;;;;;;;;;;;11.46;100.00;98061.34;5032030;28;19951;-71
2023/03/09 02:58:25;;;;;;;;;;;;;;;11.48;100.00;98068.25;5033162;28;19932;-71
2023/03/09 03:00:50;;;;;;;;;;;;;;;11.36;100.00;98073.56;5032859;28;20301;-71
2023/03/09 03:03:19;;;;;;;;;;;;;;;11.33;100.00;98073.75;5011541;28;19949;-71
2023/03/09 03:05:45;;;;;;;;;;;;;;;11.32;100.00;98072.91;5027782;28;19975;-71
2023/03/09 03:08:10;;;;;;;;;;;;;;;11.33;100.00;98090.59;5031997;28;19956;-71
2023/03/09 03:10:35;;;;;;;;;;;;;;;11.30;100.00;98089.94;5032862;28;20729;-73
2023/03/09 03:13:01;;;;;;;;;;;;;;;11.26;100.00;98089.28;5033039;28;19990;-72
2023/03/09 03:15:26;;;;;;;;;;;;;;;11.30;100.00;98100.59;5032210;28;20049;-72
2023/03/09 03:17:51;;;;;;;;;;;;;;;11.30;100.00;98101.41;5031391;28;20018;-72
2023/03/09 03:20:16;;;;;;;;;;;;;;;11.28;100.00;98113.13;5031863;28;20351;-72
2023/03/09 03:22:42;;;;;;;;;;;;;;;11.25;100.00;98121.31;5032689;28;19943;-71
2023/03/09 03:25:08;;;;;;;;;;;;;;;11.26;100.00;98134.53;5002964;28;19961;-73
2023/03/09 03:27:33;;;;;;;;;;;;;;;11.28;100.00;98142.41;5032398;28;19985;-71
2023/03/09 03:29:58;;;;;;;;;;;;;;;11.33;100.00;98153.63;5032601;28;20669;-71
2023/03/09 03:32:24;;;;;;;;;;;;;;;11.30;100.00;98169.78;5031581;28;19955;-72
2023/03/09 03:34:49;;;;;;;;;;;;;;;11.31;100.00;98163.50;5032595;28;19946;-73
2023/03/09 03:37:14;;;;;;;;;;;;;;;11.26;100.00;98176.25;5031903;28;19929;-72
2023/03/09 03:39:40;;;;;;;;;;;;;;;11.24;100.00;98171.03;5032344;28;19962;-72
2023/03/09 03:42:05;;;;;;;;;;;;;;;11.27;100.00;98181.47;5032628;28;19917;-73
2023/03/09 03:44:30;;;;;;;;;;;;;;;11.24;99.90;98178.16;5025284;28;19921;-74
2023/03/09 03:46:56;;;;;;;;;;;;;;;11.27;97.75;98199.22;5030921;28;19938;-73
2023/03/09 03:49:21;;;;;;;;;;;;;;;11.39;96.40;98211.75;5031607;28;20404;-72
2023/03/09 03:51:46;;;;;;;;;;;;;;;11.49;95.68;98210.22;5028367;28;19956;-72
2023/03/09 03:54:12;;;;;;;;;;;;;;;11.51;96.02;98208.31;5032078;28;19982;-71
2023/03/09 03:56:37;;;;;;;;;;;;;;;11.48;95.24;98203.19;5031406;28;20357;-73
2023/03/09 03:59:02;;;;;;;;;;;;;;;11.51;96.06;98208.31;5030260;28;19921;-73
2023/03/09 04:01:27;;;;;;;;;;;;;;;11.52;95.83;98207.34;5014934;28;20429;-74
2023/03/09 04:03:53;;;;;;;;;;;;;;;11.50;94.81;98209.25;5029019;28;19949;-73
2023/03/09 04:06:18;;;;;;;;;;;;;;;11.52;96.29;98223.31;5023614;28;19931;-74
2023/03/09 04:08:44;;;;;;;;;;;;;;;11.48;95.29;98228.00;5032065;28;19935;-73
2023/03/09 04:11:09;;;;;;;;;;;;;;;11.56;95.19;98235.50;5031295;28;19959;-73
2023/03/09 04:13:34;;;;;;;;;;;;;;;11.58;95.56;98249.56;5031675;28;19921;-74
2023/03/09 04:16:00;;;;;;;;;;;;;;;11.64;95.20;98254.53;5031862;28;19924;-73
2023/03/09 04:18:25;;;;;;;;;;;;;;;11.69;95.29;98255.09;5030782;28;19942;-73
2023/03/09 04:20:50;;;;;;;;;;;;;;;11.69;95.58;98257.75;5031845;28;19939;-75
2023/03/09 04:23:15;;;;;;;;;;;;;;;11.64;94.63;98254.53;5030989;28;19932;-73
2023/03/09 04:25:41;;;;;;;;;;;;;;;11.74;94.69;98271.63;5030715;28;20398;-74
2023/03/09 04:28:06;;;;;;;;;;;;;;;11.79;93.78;98264.19;5031250;28;20073;-73
2023/03/09 04:30:31;;;;;;;;;;;;;;;11.85;93.88;98277.97;5023080;28;19977;-74
2023/03/09 04:32:57;;;;;;;;;;;;;;;11.83;93.65;98289.66;5008005;28;19953;-73
2023/03/09 04:35:22;;;;;;;;;;;;;;;11.87;93.73;98293.84;5031459;28;20322;-73
2023/03/09 04:37:47;;;;;;;;;;;;;;;11.89;93.75;98307.94;5030638;28;20340;-74
2023/03/09 04:40:13;;;;;;;;;;;;;;;11.93;93.88;98296.09;5031605;28;19935;-75
2023/03/09 04:42:38;;;;;;;;;;;;;;;11.93;93.12;98309.41;5031407;28;19917;-75
2023/03/09 04:45:04;;;;;;;;;;;;;;;11.99;92.23;98314.38;5030552;28;19967;-76
2023/03/09 04:47:30;;;;;;;;;;;;;;;12.04;91.23;98312.25;5030247;28;20292;-73
2023/03/09 04:49:55;;;;;;;;;;;;;;;12.04;89.48;98325.59;5030786;28;19928;-75
2023/03/09 04:52:20;;;;;;;;;;;;;;;12.12;87.83;98325.94;5012044;28;19925;-75
2023/03/09 04:54:46;;;;;;;;;;;;;;;12.27;86.72;98335.59;5031032;28;19927;-75
2023/03/09 04:57:11;;;;;;;;;;;;;;;12.34;86.13;98339.53;5030275;28;19997;-74
2023/03/09 04:59:36;;;;;;;;;;;;;;;12.39;86.52;98340.09;5030193;28;20375;-73
2023/03/09 05:02:02;;;;;;;;;;;;;;;12.35;86.41;98338.59;5030699;28;19924;-74
2023/03/09 05:04:27;;;;;;;;;;;;;;;12.36;86.40;98350.09;5029488;28;19917;-74
2023/03/09 05:06:52;;;;;;;;;;;;;;;12.34;85.85;98355.53;5030362;28;20484;-74
2023/03/09 05:09:17;;;;;;;;;;;;;;;12.38;84.67;98342.88;5021092;28;19955;-74
2023/03/09 05:11:43;;;;;;;;;;;;;;;12.47;84.77;98337.75;5029421;28;19998;-74
2023/03/09 05:14:09;;;;;;;;;;;;;;;12.47;85.57;98342.25;5018699;28;19930;-74
2023/03/09 05:16:34;;;;;;;;;;;;;;;12.46;85.05;98349.41;5011278;28;20043;-74
2023/03/09 05:18:59;;;;;;;;;;;;;;;12.45;85.09;98344.16;5029668;28;19950;-74
2023/03/09 05:21:24;;;;;;;;;;;;;;;12.41;85.38;98354.19;5029681;28;20495;-72
2023/03/09 05:23:50;;;;;;;;;;;;;;;12.37;85.75;98351.81;5019441;28;19967;-75
2023/03/09 05:26:15;;;;;;;;;;;;;;;12.33;86.12;98367.16;5010764;28;19941;-74
2023/03/09 05:28:40;;;;;;;;;;;;;;;12.33;85.64;98366.31;5027068;28;19935;-73
2023/03/09 05:31:09;;;;;;;;;;;;;;;12.30;86.49;98361.19;5030487;28;19924;-74
2023/03/09 05:33:35;;;;;;;;;;;;;;;12.31;85.74;98369.06;5029322;28;20089;-71
2023/03/09 05:36:00;;;;;;;;;;;;;;;12.34;86.61;98379.53;5030456;28;19944;-73
2023/03/09 05:38:25;;;;;;;;;;;;;;;12.33;87.02;98376.97;5030179;28;19917;-73
2023/03/09 05:40:50;;;;;;;;;;;;;;;12.27;88.42;98382.72;5029712;28;20365;-73
2023/03/09 05:43:16;;;;;;;;;;;;;;;12.19;88.83;98369.88;5030327;28;19959;-74
2023/03/09 05:45:41;;;;;;;;;;;;;;;12.13;88.62;98372.94;5029761;28;20009;-74
2023/03/09 05:48:06;;;;;;;;;;;;;;;12.14;88.81;98363.16;5030315;28;19931;-75
2023/03/09 05:50:32;;;;;;;;;;;;;;;12.15;89.54;98363.03;5030487;28;19973;-74
2023/03/09 05:52:58;;;;;;;;;;;;;;;12.09;89.10;98382.09;5029053;28;20012;-75
2023/03/09 05:55:23;;;;;;;;;;;;;;;12.09;89.75;98384.78;5030184;28;19928;-75
2023/03/09 05:57:48;;;;;;;;;;;;;;;12.13;89.88;98396.06;5029081;28;19935;-75
2023/03/09 06:00:15;;;;;;;;;;;;;;;12.15;89.77;98391.50;5029433;28;19927;-72
2023/03/09 06:02:40;;;;;;;;;;;;;;;12.19;88.86;98403.69;5014922;28;20391;-74
2023/03/09 06:05:06;;;;;;;;;;;;;;;12.20;88.54;98403.59;5019064;28;20013;-73
2023/03/09 06:07:31;;;;;;;;;;;;;;;12.23;88.45;98408.72;5029098;28;19936;-74
2023/03/09 06:09:56;;;;;;;;;;;;;;;12.26;87.08;98411.16;5029864;28;19925;-75
2023/03/09 06:12:22;;;;;;;;;;;;;;;12.37;86.46;98413.16;5029305;28;19956;-72
2023/03/09 06:14:48;;;;;;;;;;;;;;;12.42;86.60;98411.03;5027703;28;19986;-74
2023/03/09 06:17:13;;;;;;;;;;;;;;;12.41;85.05;98409.31;5011449;28;19921;-73
2023/03/09 06:19:39;;;;;;;;;;;;;;;12.45;84.50;98402.84;5028079;28;19974;-73
2023/03/09 06:22:04;;;;;;;;;;;;;;;12.52;83.56;98406.81;5011091;28;20401;-74
2023/03/09 06:24:29;;;;;;;;;;;;;;;12.56;83.45;98411.84;5028564;28;19966;-73
2023/03/09 06:26:58;;;;;;;;;;;;;;;12.54;82.39;98413.75;5025960;28;19943;-71
2023/03/09 06:29:24;;;;;;;;;;;;;;;12.58;82.38;98417.94;5010307;28;19941;-74
2023/03/09 06:31:49;;;;;;;;;;;;;;;12.63;82.69;98422.97;5026359;28;19925;-72
2023/03/09 06:34:15;;;;;;;;;;;;;;;12.67;81.66;98427.97;5028796;28;19924;-73
2023/03/09 06:36:40;;;;;;;;;;;;;;;12.68;81.54;98435.06;5032472;28;19948;-72
2023/03/09 06:39:05;;;;;;;;;;;;;;;12.71;80.53;98426.84;5032550;28;20399;-73
2023/03/09 06:41:31;;;;;;;;;;;;;;;12.72;80.48;98435.69;5033414;28;19942;-71
2023/03/09 06:43:58;;;;;;;;;;;;;;;12.75;79.96;98427.50;5032102;28;20429;-73
2023/03/09 06:46:23;;;;;;;;;;;;;;;12.78;79.25;98437.97;5033291;28;20682;-75
2023/03/09 06:48:49;;;;;;;;;;;;;;;12.83;79.60;98431.34;5033214;28;20030;-73
2023/03/09 06:51:14;;;;;;;;;;;;;;;12.88;79.85;98436.38;5031187;28;19944;-74
2023/03/09 06:53:39;;;;;;;;;;;;;;;12.93;79.49;98443.09;5033311;28;20005;-74
2023/03/09 06:56:05;;;;;;;;;;;;;;;12.93;78.90;98448.44;5014386;28;19931;-74
2023/03/09 06:58:32;;;;;;;;;;;;;;;12.97;78.45;98439.28;5013227;28;19941;-73
2023/03/09 07:00:57;;;;;;;;;;;;;;;13.02;77.78;98461.22;5032897;28;20473;-72
2023/03/09 07:03:23;;;;;;;;;;;;;;;13.06;77.89;98461.88;5032997;28;19947;-73
2023/03/09 07:05:48;;;;;;;;;;;;;;;13.08;78.52;98462.59;5007250;28;19970;-74
2023/03/09 07:08:14;;;;;;;;;;;;;;;13.09;77.40;98467.88;5022381;28;19925;-71
2023/03/09 07:10:39;;;;;;;;;;;;;;;13.16;76.26;98469.16;4995985;28;20054;-73
2023/03/09 07:13:04;;;;;;;;;;;;;;;13.18;76.86;98469.03;4996398;28;20305;-74
2023/03/09 07:15:30;;;;;;;;;;;;;;;13.17;77.72;98467.34;5000715;28;19928;-75
2023/03/09 07:17:55;;;;;;;;;;;;;;;13.14;77.68;98472.88;5011251;28;19928;-75
2023/03/09 07:20:23;;;;;;;;;;;;;;;13.12;78.24;98474.81;5010485;28;19970;-73
2023/03/09 07:22:48;;;;;;;;;;;;;;;13.11;78.45;98483.78;5012953;28;20041;-75
2023/03/09 07:25:14;;;;;;;;;;;;;;;13.10;78.06;98496.25;5012982;28;20698;-73
2023/03/09 07:27:39;;;;;;;;;;;;;;;13.11;78.48;98495.28;5012287;28;20367;-75
2023/03/09 07:30:05;;;;;;;;;;;;;;;13.10;77.76;98498.94;5012050;28;19929;-76
2023/03/09 07:32:30;;;;;;;;;;;;;;;13.13;77.31;98505.88;5009951;28;20006;-74
2023/03/09 07:34:55;;;;;;;;;;;;;;;13.15;78.48;98518.16;5011847;28;20403;-72
2023/03/09 07:37:20;;;;;;;;;;;;;;;13.07;77.02;98512.50;5012013;28;19993;-74
2023/03/09 07:39:46;;;;;;;;;;;;;;;13.10;76.50;98525.63;5011756;28;20399;-76
2023/03/09 07:42:11;;;;;;;;;;;;;;;13.16;76.86;98525.22;5010938;28;19936;-75
2023/03/09 07:44:36;;;;;;;;;;;;;;;13.13;76.02;98540.56;5012022;28;19936;-76
2023/03/09 07:47:02;;;;;;;;;;;;;;;13.23;77.21;98532.84;5009603;28;19943;-73
2023/03/09 07:49:27;;;;;;;;;;;;;;;13.17;77.07;98528.75;5011258;28;20563;-76
2023/03/09 07:51:53;;;;;;;;;;;;;;;13.04;76.41;98542.06;5012460;28;19925;-74
2023/03/09 07:54:19;;;;;;;;;;;;;;;13.14;77.28;98542.31;5011356;28;19925;-73
2023/03/09 07:56:50;;;;;;;;;;;;;;;13.13;76.43;98561.94;4995491;28;19957;-74
2023/03/09 07:59:16;;;;;;;;;;;;;;;13.11;77.05;98564.69;5001877;28;20395;-74
2023/03/09 08:01:41;;;;;;;;;;;;;;;13.16;75.80;98578.59;5009865;28;19943;-73
2023/03/09 08:04:06;;;;;;;;;;;;;;;13.19;76.47;98569.56;5011190;28;20048;-74
2023/03/09 08:06:32;;;;;;;;;;;;;;;13.20;77.62;98580.13;5011577;28;19943;-75
2023/03/09 08:08:57;;;;;;;;;;;;;;;13.20;78.41;98574.78;5011106;28;19928;-75
2023/03/09 08:11:23;;;;;;;;;;;;;;;13.12;79.96;98590.47;5030852;28;19921;-74
2023/03/09 08:13:48;;;;;;;;;;;;;;;12.99;81.30;98594.84;5030734;28;19917;-75
2023/03/09 08:16:14;;;;;;;;;;;;;;;12.88;81.95;98594.66;5029778;28;20431;-75
2023/03/09 08:18:39;;;;;;;;;;;;;;;12.91;82.21;98598.97;5020394;28;19943;-73
2023/03/09 08:21:06;;;;;;;;;;;;;;;12.94;82.87;98594.28;5030487;28;20008;-72
2023/03/09 08:23:32;;;;;;;;;;;;;;;13.03;82.89;98580.38;5028456;28;20572;-76
2023/03/09 08:25:57;;;;;;;;;;;;;;;13.20;81.60;98584.59;5021610;28;19917;-75
2023/03/09 08:28:23;;;;;;;;;;;;;;;13.36;80.53;98598.66;5012161;28;19967;-75
2023/03/09 08:30:48;;;;;;;;;;;;;;;13.53;78.08;98592.19;5024441;28;19913;-76
2023/03/09 08:33:13;;;;;;;;;;;;;;;13.80;77.32;98593.00;5030241;28;20397;-73
2023/03/09 08:35:39;;;;;;;;;;;;;;;14.04;75.85;98602.00;5031226;28;19920;-74
2023/03/09 08:38:04;;;;;;;;;;;;;;;14.10;75.49;98605.09;5013087;28;19932;-75
2023/03/09 08:40:29;;;;;;;;;;;;;;;14.07;74.60;98616.03;5009175;28;19921;-75
2023/03/09 08:42:55;;;;;;;;;;;;;;;14.03;74.80;98616.34;5011740;28;19971;-74
2023/03/09 08:45:20;;;;;;;;;;;;;;;13.92;75.16;98621.59;5024655;28;19917;-74
2023/03/09 08:47:46;;;;;;;;;;;;;;;13.80;76.29;98622.41;5013226;28;19913;-74
2023/03/09 08:50:11;;;;;;;;;;;;;;;13.71;75.14;98626.53;5011957;28;19920;-75
2023/03/09 08:52:39;;;;;;;;;;;;;;;13.66;75.26;98628.66;5026383;28;19982;-75
2023/03/09 08:55:06;;;;;;;;;;;;;;;13.66;75.54;98638.50;5031051;28;19917;-74
2023/03/09 08:57:31;;;;;;;;;;;;;;;13.70;75.24;98640.88;5030423;28;19924;-75
2023/03/09 08:59:57;;;;;;;;;;;;;;;13.74;75.60;98631.69;5006292;28;19917;-75
2023/03/09 09:02:23;;;;;;;;;;;;;;;13.73;74.88;98642.47;5018956;28;19928;-74
2023/03/09 09:04:48;;;;;;;;;;;;;;;13.72;74.41;98640.78;5002262;28;19974;-73
2023/03/09 09:07:14;;;;;;;;;;;;;;;13.70;74.54;98653.38;5026447;28;20360;-73
2023/03/09 09:09:40;;;;;;;;;;;;;;;13.67;74.54;98648.25;5030796;28;19928;-75
2023/03/09 09:12:06;;;;;;;;;;;;;;;13.67;74.86;98659.78;5029321;28;19921;-75
2023/03/09 09:14:32;;;;;;;;;;;;;;;13.64;75.52;98662.66;5030987;28;19975;-74
2023/03/09 09:16:57;;;;;;;;;;;;;;;13.64;77.04;98664.47;5013011;28;19912;-74
2023/03/09 09:19:23;;;;;;;;;;;;;;;13.54;78.02;98660.69;5029879;28;20373;-74
2023/03/09 09:21:48;;;;;;;;;;;;;;;13.45;78.46;98664.84;5030571;28;19985;-74
2023/03/09 09:24:13;;;;;;;;;;;;;;;13.51;79.42;98677.78;5011711;28;19946;-74
2023/03/09 09:26:40;;;;;;;;;;;;;;;13.43;79.36;98672.06;5030435;28;19916;-74
2023/03/09 09:29:06;;;;;;;;;;;;;;;13.36;79.26;98686.78;5029417;28;19913;-72
2023/03/09 09:31:31;;;;;;;;;;;;;;;13.36;79.44;98676.09;5029814;28;20156;-74
2023/03/09 09:33:57;;;;;;;;;;;;;;;13.38;79.15;98684.88;5030251;28;19913;-74
2023/03/09 09:36:24;;;;;;;;;;;;;;;13.39;78.69;98701.78;5029581;28;19920;-75
2023/03/09 09:38:51;;;;;;;;;;;;;;;13.36;78.72;98696.63;5030727;28;19913;-74
2023/03/09 09:41:24;;;;;;;;;;;;;;;13.36;78.91;98702.81;5029875;28;19972;-73
2023/03/09 09:43:52;;;;;;;;;;;;;;;13.36;77.96;98702.81;5028479;28;19913;-74
2023/03/09 09:46:19;;;;;;;;;;;;;;;13.41;78.29;98702.53;5029123;28;19927;-73
2023/03/09 09:48:46;;;;;;;;;;;;;;;13.46;79.42;98716.44;5030279;28;19917;-74
2023/03/09 09:51:15;;;;;;;;;;;;;;;13.47;80.49;98711.00;5030201;28;19917;-74
2023/03/09 09:54:00;;;;;;;;;;;;;;;13.44;80.32;98721.91;5011774;28;19921;-73
2023/03/09 09:56:36;;;;;;;;;;;;;;;13.46;80.93;98724.47;4987446;28;19955;-73
2023/03/09 09:59:04;;;;;;;;;;;;;;;13.45;82.00;98733.41;5010499;28;20376;-74
2023/03/09 10:01:37;;;;;;;;;;;;;;;13.39;83.21;98733.81;5012554;28;19933;-74
2023/03/09 10:04:06;;;;;;;;;;;;;;;13.31;83.67;98736.13;5029376;28;20011;-73
2023/03/09 10:06:31;;;;;;;;;;;;;;;13.32;85.16;98733.34;5012022;28;20017;-72
2023/03/09 10:08:59;;;;;;;;;;;;;;;13.26;85.43;98740.91;5017667;28;20351;-74
2023/03/09 10:11:24;;;;;;;;;;;;;;;13.23;86.42;98746.44;5025111;28;19925;-73
2023/03/09 10:14:10;;;;;;;;;;;;;;;13.27;88.05;98745.28;5029746;28;19928;-73
2023/03/09 10:16:38;;;;;;;;;;;;;;;13.27;89.76;98750.63;5028074;28;20008;-74
2023/03/09 10:19:07;;;;;;;;;;;;;;;13.30;90.48;98761.09;5029874;28;19920;-74
2023/03/09 10:21:51;;;;;;;;;;;;;;;13.18;91.42;98752.06;5029890;28;19928;-74
2023/03/09 10:24:26;;;;;;;;;;;;;;;13.14;92.40;98756.75;5029495;28;19924;-75
2023/03/09 10:27:11;;;;;;;;;;;;;;;13.14;93.42;98770.09;5029844;28;19924;-75
2023/03/09 10:29:47;;;;;;;;;;;;;;;13.12;92.89;98753.31;5029157;28;19928;-73
2023/03/09 10:32:16;;;;;;;;;;;;;;;13.12;93.06;98755.13;5012262;28;19928;-74
2023/03/09 10:34:50;;;;;;;;;;;;;;;13.19;93.86;98743.94;5010194;28;19917;-75
2023/03/09 10:37:16;;;;;;;;;;;;;;;13.23;94.25;98755.28;5009969;28;19917;-75
2023/03/09 10:39:43;;;;;;;;;;;;;;;13.23;93.89;98755.28;5019958;28;19964;-74
2023/03/09 10:42:27;;;;;;;;;;;;;;;13.24;93.45;98751.69;5029671;28;19936;-75
2023/03/09 10:45:11;;;;;;;;;;;;;;;13.31;93.82;98757.50;5028555;28;19932;-74
2023/03/09 10:47:53;;;;;;;;;;;;;;;13.27;93.54;98761.28;5029381;28;20222;-75
2023/03/09 10:50:19;;;;;;;;;;;;;;;13.27;91.90;98755.97;5028754;28;19917;-75
2023/03/09 10:52:44;;;;;;;;;;;;;;;13.32;90.93;98753.84;5029316;28;19970;-73
2023/03/09 10:55:25;;;;;;;;;;;;;;;13.44;89.54;98755.75;5023055;28;19925;-75
2023/03/09 10:57:58;;;;;;;;;;;;;;;13.44;88.78;98761.09;5027045;28;20387;-74
2023/03/09 11:00:25;;;;;;;;;;;;;;;13.46;88.19;98756.50;5029516;28;19917;-74
2023/03/09 11:02:55;;;;;;;;;;;;;;;13.50;88.48;98763.34;5024862;28;20331;-74
2023/03/09 11:05:22;;;;;;;;;;;;;;;13.57;87.79;98768.22;5029052;28;19940;-73
2023/03/09 11:07:52;;;;;;;;;;;;;;;13.63;86.90;98769.63;5010518;28;19999;-73
2023/03/09 11:10:35;;;;;;;;;;;;;;;13.65;87.08;98773.94;5027843;28;19925;-74
2023/03/09 11:13:02;;;;;;;;;;;;;;;13.66;87.96;98774.75;5028577;28;19925;-74
2023/03/09 11:15:29;;;;;;;;;;;;;;;13.70;88.23;98773.63;5008638;28;19986;-73
2023/03/09 11:17:55;;;;;;;;;;;;;;;13.87;88.37;98774.22;5015469;28;20383;-73
2023/03/09 11:20:23;;;;;;;;;;;;;;;14.04;86.82;98759.75;5013858;28;19921;-73
2023/03/09 11:22:54;;;;;;;;;;;;;;;14.13;86.98;98762.69;5030835;28;19919;-73
2023/03/09 11:25:31;;;;;;;;;;;;;;;14.20;84.45;98765.81;5032923;28;19952;-73
2023/03/09 11:28:00;;;;;;;;;;;;;;;14.08;83.88;98771.97;5031331;28;19986;-73
2023/03/09 11:30:27;;;;;;;;;;;;;;;14.05;84.97;98782.88;5032463;28;20373;-72
2023/03/09 11:32:53;;;;;;;;;;;;;;;14.07;85.57;98775.59;5032353;28;20633;-74
2023/03/09 11:35:20;;;;;;;;;;;;;;;14.04;85.94;98778.47;5032585;28;19913;-74
2023/03/09 11:37:45;;;;;;;;;;;;;;;14.06;87.04;98773.88;5010659;28;19921;-73
2023/03/09 11:40:13;;;;;;;;;;;;;;;14.13;87.00;98769.84;5032582;28;19979;-73
2023/03/09 11:42:42;;;;;;;;;;;;;;;14.11;86.54;98775.31;5032437;28;19949;-74
2023/03/09 11:45:13;;;;;;;;;;;;;;;14.21;86.71;98767.53;5029811;28;20378;-73
2023/03/09 11:47:52;;;;;;;;;;;;;;;14.17;86.53;98769.53;5012615;28;19948;-73
2023/03/09 11:50:20;;;;;;;;;;;;;;;14.27;86.26;98772.47;5011506;28;20032;-74
2023/03/09 11:52:48;;;;;;;;;;;;;;;14.34;85.13;98768.44;4995007;28;19956;-74
2023/03/09 11:55:15;;;;;;;;;;;;;;;14.42;84.73;98771.44;5022567;28;19928;-73
2023/03/09 11:57:44;;;;;;;;;;;;;;;14.49;84.06;98759.38;5013785;28;20282;-73
2023/03/09 12:00:13;;;;;;;;;;;;;;;14.54;84.57;98765.28;5032058;28;19917;-73
2023/03/09 12:02:59;;;;;;;;;;;;;;;14.51;84.49;98762.81;5032051;28;19987;-72
2023/03/09 12:05:27;;;;;;;;;;;;;;;14.38;85.17;98753.91;5029426;28;20373;-72
2023/03/09 12:08:18;;;;;;;;;;;;;;;14.45;86.11;98755.19;5028545;28;20011;-72
2023/03/09 12:10:49;;;;;;;;;;;;;;;14.81;84.98;98752.66;4996108;28;19921;-72
2023/03/09 12:13:17;;;;;;;;;;;;;;;14.86;83.37;98750.50;5031807;28;20537;-72
2023/03/09 12:15:54;;;;;;;;;;;;;;;14.89;82.40;98750.28;5030885;28;19917;-73
2023/03/09 12:18:24;;;;;;;;;;;;;;;14.91;82.38;98743.00;5031743;28;20011;-72
2023/03/09 12:20:57;;;;;;;;;;;;;;;14.95;82.51;98749.88;5031821;28;19917;-72
2023/03/09 12:23:35;;;;;;;;;;;;;;;14.96;81.67;98740.88;5030876;28;19952;-73
2023/03/09 12:26:01;;;;;;;;;;;;;;;14.97;81.21;98747.94;5031459;28;19928;-72
2023/03/09 12:28:26;;;;;;;;;;;;;;;14.98;81.09;98744.28;5030573;28;20352;-72
2023/03/09 12:30:53;;;;;;;;;;;;;;;14.82;79.00;98732.09;5031516;28;19921;-71
2023/03/09 12:33:37;;;;;;;;;;;;;;;14.87;80.77;98733.50;5030951;28;19957;-72
2023/03/09 12:36:02;;;;;;;;;;;;;;;15.13;80.33;98727.16;5031204;28;20361;-71
2023/03/09 12:38:28;;;;;;;;;;;;;;;15.30;79.27;98728.63;5027539;28;19920;-72
2023/03/09 12:40:54;;;;;;;;;;;;;;;15.46;78.91;98719.41;5007455;28;20288;-72
2023/03/09 12:43:19;;;;;;;;;;;;;;;15.65;75.50;98711.69;5031291;28;19924;-72
2023/03/09 12:45:46;;;;;;;;;;;;;;;16.22;76.90;98705.63;5030523;28;19924;-72